Time;durP1;ratioP1;P1;durP2;ratioP2;P2;SDS_P1;SDS_P2;PMS_P1;PMS_P2;Temp;Humidity;BMP_temperature;BMP_pressure;BME280_temperature;BME280_humidity;BME280_pressure;Samples;Min_cycle;Max_cycle;Signal;HPM_P1;HPM_P2
2022/08/29 00:00:00;;;;;;;9.18;4.32;;;18.20;99.90;;;;;;5082332;28;20231;-88
2022/08/29 00:02:30;;;;;;;6.85;4.47;;;18.10;99.90;;;;;;5092574;28;20206;-89
2022/08/29 00:05:05;;;;;;;8.48;4.35;;;18.00;99.90;;;;;;5104906;28;20668;-90
2022/08/29 00:07:38;;;;;;;10.70;5.05;;;18.10;99.90;;;;;;5101370;28;20241;-89
2022/08/29 00:10:11;;;;;;;7.38;4.10;;;18.20;99.90;;;;;;5099382;28;20306;-87
2022/08/29 00:12:42;;;;;;;5.75;3.72;;;18.20;99.90;;;;;;5093111;28;20245;-88
2022/08/29 00:15:14;;;;;;;5.80;4.50;;;18.30;99.90;;;;;;5094210;28;20219;-88
2022/08/29 00:17:46;;;;;;;6.03;4.32;;;18.30;99.90;;;;;;5087654;28;20187;-88
2022/08/29 00:20:20;;;;;;;5.47;4.35;;;18.30;99.90;;;;;;5089222;28;20199;-90
2022/08/29 00:22:51;;;;;;;5.93;4.00;;;18.40;99.90;;;;;;5077705;28;20223;-88
2022/08/29 00:25:22;;;;;;;9.75;5.47;;;18.50;99.90;;;;;;5092852;28;20558;-86
2022/08/29 00:27:55;;;;;;;7.40;4.95;;;18.50;99.90;;;;;;5094043;28;20202;-89
2022/08/29 00:30:28;;;;;;;7.18;5.80;;;18.60;99.90;;;;;;5073871;28;20659;-89
2022/08/29 00:32:59;;;;;;;8.75;5.00;;;18.70;99.90;;;;;;5074149;28;20227;-89
2022/08/29 00:35:35;;;;;;;7.45;4.63;;;18.70;99.90;;;;;;5089804;28;20211;-90
2022/08/29 00:38:07;;;;;;;7.80;4.70;;;18.90;99.90;;;;;;5094151;28;20676;-88
2022/08/29 00:40:42;;;;;;;15.32;5.85;;;18.90;99.90;;;;;;5099074;28;20202;-89
2022/08/29 00:43:13;;;;;;;8.10;4.38;;;19.00;99.90;;;;;;5105760;28;20229;-90
2022/08/29 00:45:50;;;;;;;6.30;4.57;;;19.10;99.90;;;;;;5083501;28;20290;-88
2022/08/29 00:48:23;;;;;;;4.13;3.53;;;19.30;99.90;;;;;;5092557;28;20223;-89
2022/08/29 00:51:04;;;;;;;6.68;3.22;;;19.40;99.90;;;;;;5096195;28;20253;-90
2022/08/29 00:53:41;;;;;;;3.28;2.70;;;19.50;99.90;;;;;;5089353;28;20244;-86
2022/08/29 00:56:15;;;;;;;3.97;2.60;;;19.60;99.90;;;;;;5091001;28;20194;-85
2022/08/29 00:58:50;;;;;;;4.50;2.72;;;19.70;99.90;;;;;;5086839;28;20195;-89
2022/08/29 01:01:21;;;;;;;4.03;2.33;;;19.80;99.90;;;;;;5079670;28;20269;-85
2022/08/29 01:03:55;;;;;;;3.75;2.10;;;19.90;99.90;;;;;;5091448;28;20274;-87
2022/08/29 01:06:30;;;;;;;4.50;2.50;;;19.90;99.90;;;;;;5086012;28;20694;-86
2022/08/29 01:09:01;;;;;;;6.30;2.00;;;19.90;99.90;;;;;;5081110;28;20681;-85
2022/08/29 01:14:21;;;;;;;3.22;2.00;;;20.00;99.90;;;;;;5086372;28;20205;-87
2022/08/29 01:16:56;;;;;;;4.25;1.67;;;19.90;99.90;;;;;;5085774;28;20200;-88
2022/08/29 01:19:38;;;;;;;6.82;1.30;;;19.90;99.90;;;;;;5080433;28;20195;-86
2022/08/29 01:22:20;;;;;;;3.67;1.63;;;20.00;99.90;;;;;;5090713;28;20684;-90
2022/08/29 01:24:56;;;;;;;3.40;1.20;;;20.10;99.90;;;;;;5077835;28;20565;-89
2022/08/29 01:27:30;;;;;;;2.17;1.23;;;20.20;99.90;;;;;;5089961;28;20195;-88
2022/08/29 01:30:00;;;;;;;3.30;0.95;;;20.30;99.90;;;;;;5091978;28;20304;-88
2022/08/29 01:32:31;;;;;;;1.42;1.00;;;20.40;99.90;;;;;;5090529;28;20191;-87
2022/08/29 01:35:04;;;;;;;1.40;1.13;;;20.40;99.90;;;;;;5087728;28;20675;-86
2022/08/29 01:37:37;;;;;;;3.65;1.20;;;20.50;99.90;;;;;;5087972;28;20274;-87
2022/08/29 01:40:12;;;;;;;1.75;0.90;;;20.50;99.90;;;;;;5092309;28;20274;-87
2022/08/29 01:42:43;;;;;;;2.08;1.00;;;20.40;99.90;;;;;;5094954;28;20569;-86
2022/08/29 01:45:14;;;;;;;2.58;0.95;;;20.40;99.90;;;;;;5079981;28;20228;-86
2022/08/29 01:47:45;;;;;;;2.33;0.90;;;20.20;99.90;;;;;;5075276;28;20232;-86
2022/08/29 01:50:18;;;;;;;1.40;0.70;;;20.20;99.90;;;;;;5075297;28;20462;-87
2022/08/29 01:52:49;;;;;;;1.95;0.80;;;20.20;99.90;;;;;;5074296;28;20204;-86
2022/08/29 01:55:22;;;;;;;3.63;1.20;;;20.30;99.90;;;;;;5074435;28;20199;-87
2022/08/29 01:57:54;;;;;;;1.85;1.00;;;20.40;99.90;;;;;;5075783;28;20290;-86
2022/08/29 02:00:25;;;;;;;3.00;1.02;;;20.40;99.90;;;;;;5078190;28;20226;-87
2022/08/29 02:03:00;;;;;;;1.15;0.80;;;20.30;99.90;;;;;;5074998;28;20195;-89
2022/08/29 02:05:31;;;;;;;2.42;0.75;;;20.40;99.90;;;;;;5081290;28;20316;-86
2022/08/29 02:08:02;;;;;;;2.53;0.82;;;20.40;99.90;;;;;;5075828;28;20200;-87
2022/08/29 02:10:39;;;;;;;1.92;0.80;;;20.40;99.90;;;;;;5091113;28;20215;-87
2022/08/29 02:13:10;;;;;;;2.05;0.80;;;20.40;99.90;;;;;;5087364;28;20571;-82
2022/08/29 02:15:41;;;;;;;1.88;0.80;;;20.40;99.90;;;;;;5122013;28;20219;-86
2022/08/29 02:18:12;;;;;;;2.25;0.70;;;20.40;99.90;;;;;;5092341;28;20278;-85
2022/08/29 02:20:42;;;;;;;1.05;0.63;;;20.40;99.90;;;;;;5080723;28;20238;-87
2022/08/29 02:23:28;;;;;;;3.10;0.70;;;20.40;99.90;;;;;;5086097;28;20198;-85
2022/08/29 02:26:03;;;;;;;1.67;0.98;;;20.40;99.90;;;;;;5094199;28;20207;-85
2022/08/29 02:28:35;;;;;;;1.02;0.60;;;20.40;99.90;;;;;;5096509;28;20287;-83
2022/08/29 02:31:07;;;;;;;2.85;0.65;;;20.30;99.90;;;;;;5093841;28;20202;-84
2022/08/29 02:33:39;;;;;;;2.10;0.70;;;20.20;99.90;;;;;;5077527;28;20210;-85
2022/08/29 02:36:10;;;;;;;2.95;0.90;;;20.30;99.90;;;;;;5090718;28;20718;-84
2022/08/29 02:38:41;;;;;;;2.95;0.63;;;20.30;99.90;;;;;;5094046;28;20198;-84
2022/08/29 02:41:14;;;;;;;2.75;0.60;;;20.20;99.90;;;;;;5089163;28;20350;-85
2022/08/29 02:43:45;;;;;;;2.50;0.80;;;20.30;99.90;;;;;;5072917;28;20189;-84
2022/08/29 02:46:21;;;;;;;2.20;0.80;;;20.30;99.90;;;;;;5087081;28;20195;-84
2022/08/29 02:48:52;;;;;;;1.58;0.77;;;20.30;99.90;;;;;;5093885;28;20224;-84
2022/08/29 02:51:24;;;;;;;3.38;0.75;;;20.30;99.90;;;;;;5097689;28;20211;-83
2022/08/29 02:53:55;;;;;;;3.10;0.80;;;20.30;99.90;;;;;;5088182;28;20191;-85
2022/08/29 02:56:28;;;;;;;3.95;0.80;;;20.30;99.90;;;;;;5103372;28;20191;-84
2022/08/29 02:59:00;;;;;;;2.38;0.77;;;20.30;99.90;;;;;;5115229;28;20202;-83
2022/08/29 03:01:32;;;;;;;2.45;0.70;;;20.40;99.90;;;;;;5102976;28;20640;-85
2022/08/29 03:04:03;;;;;;;3.15;0.75;;;20.30;99.90;;;;;;5074955;28;20204;-85
2022/08/29 03:06:34;;;;;;;2.40;0.50;;;20.30;99.90;;;;;;5090254;28;20206;-84
2022/08/29 03:09:05;;;;;;;3.10;0.75;;;20.40;99.90;;;;;;5093332;28;20807;-86
2022/08/29 03:11:38;;;;;;;8.15;3.72;;;20.40;99.90;;;;;;5093815;28;20194;-86
2022/08/29 03:14:09;;;;;;;2.95;1.02;;;20.40;99.90;;;;;;5094083;28;20199;-87
2022/08/29 03:16:39;;;;;;;2.35;0.70;;;20.40;99.90;;;;;;5092982;28;20190;-83
2022/08/29 03:19:10;;;;;;;2.70;0.80;;;20.30;99.90;;;;;;5093467;28;20225;-83
2022/08/29 03:21:42;;;;;;;2.65;0.70;;;20.30;99.90;;;;;;5094120;28;20283;-85
2022/08/29 03:24:12;;;;;;;5.13;0.90;;;20.40;99.90;;;;;;5094188;28;20202;-83
2022/08/29 03:26:45;;;;;;;2.88;0.82;;;20.40;99.90;;;;;;5075876;28;20191;-84
2022/08/29 03:29:16;;;;;;;3.65;0.82;;;20.40;99.90;;;;;;5093345;28;20689;-82
2022/08/29 03:31:47;;;;;;;4.35;0.73;;;20.40;99.90;;;;;;5093412;28;20195;-83
2022/08/29 03:34:18;;;;;;;3.10;0.82;;;20.30;99.90;;;;;;5088583;28;20225;-85
2022/08/29 03:36:48;;;;;;;4.18;0.93;;;20.30;99.90;;;;;;5083408;28;20200;-84
2022/08/29 03:39:21;;;;;;;4.30;1.02;;;20.40;99.90;;;;;;5079237;28;20218;-83
2022/08/29 03:41:54;;;;;;;2.15;0.70;;;20.40;99.90;;;;;;5084617;28;20196;-83
2022/08/29 03:44:26;;;;;;;3.13;0.85;;;20.40;99.90;;;;;;5092807;28;20193;-84
2022/08/29 03:46:56;;;;;;;3.13;0.90;;;20.40;99.90;;;;;;5095261;28;20215;-83
2022/08/29 03:49:27;;;;;;;3.50;0.90;;;20.40;99.90;;;;;;5092966;28;20229;-86
2022/08/29 03:51:59;;;;;;;5.75;1.00;;;20.40;99.90;;;;;;5094465;28;20218;-85
2022/08/29 03:54:31;;;;;;;3.25;0.80;;;20.30;99.90;;;;;;5093504;28;20195;-85
2022/08/29 03:57:05;;;;;;;5.20;1.27;;;20.10;99.90;;;;;;5093042;28;20219;-85
2022/08/29 03:59:36;;;;;;;3.13;0.90;;;20.10;99.90;;;;;;5092495;28;20213;-84
2022/08/29 04:02:07;;;;;;;4.05;0.85;;;20.10;99.90;;;;;;5093758;28;20184;-85
2022/08/29 04:07:24;;;;;;;3.33;0.90;;;20.00;99.90;;;;;;5093871;28;20282;-84
2022/08/29 04:09:55;;;;;;;5.43;1.00;;;20.10;99.90;;;;;;5089846;28;20219;-84
2022/08/29 04:12:28;;;;;;;3.30;0.93;;;20.00;99.90;;;;;;5071483;28;20218;-84
2022/08/29 04:14:58;;;;;;;5.20;0.90;;;20.00;99.90;;;;;;5090512;28;20214;-84
2022/08/29 04:17:29;;;;;;;4.82;1.13;;;20.00;99.90;;;;;;5092362;28;20674;-83
2022/08/29 04:20:00;;;;;;;4.80;1.00;;;20.00;99.90;;;;;;5092285;28;20203;-82
2022/08/29 04:22:31;;;;;;;3.45;0.80;;;20.00;99.90;;;;;;5092297;28;20209;-83
2022/08/29 04:25:02;;;;;;;4.65;1.13;;;20.00;99.90;;;;;;5092245;28;20211;-84
2022/08/29 04:27:35;;;;;;;4.75;1.20;;;20.00;99.90;;;;;;5091524;28;20222;-84
2022/08/29 04:30:08;;;;;;;5.30;0.98;;;20.10;99.90;;;;;;5091247;28;20310;-84
2022/08/29 04:32:39;;;;;;;4.68;1.33;;;20.10;99.90;;;;;;5093313;28;20195;-84
2022/08/29 04:35:12;;;;;;;8.07;1.20;;;20.20;99.90;;;;;;5100168;28;20217;-84
2022/08/29 04:37:43;;;;;;;3.75;1.00;;;20.20;99.90;;;;;;5111644;28;20250;-85
2022/08/29 04:40:16;;;;;;;3.67;0.85;;;20.20;99.90;;;;;;5108953;28;20243;-85
2022/08/29 04:42:50;;;;;;;3.10;0.80;;;20.20;99.90;;;;;;5092686;28;20206;-83
2022/08/29 04:45:23;;;;;;;3.72;0.88;;;20.20;99.90;;;;;;5089598;28;20222;-84
2022/08/29 04:47:54;;;;;;;5.25;1.10;;;20.10;99.90;;;;;;5091520;28;20195;-85
2022/08/29 04:50:25;;;;;;;5.85;0.82;;;20.10;99.90;;;;;;5092508;28;20215;-84
2022/08/29 04:52:56;;;;;;;4.28;1.00;;;20.10;99.90;;;;;;5092178;28;20205;-83
2022/08/29 04:55:28;;;;;;;3.78;1.05;;;20.00;99.90;;;;;;5093646;28;20215;-83
2022/08/29 04:58:05;;;;;;;6.47;1.10;;;20.00;99.90;;;;;;5093238;28;20774;-86
2022/08/29 05:00:36;;;;;;;6.85;1.20;;;20.00;99.90;;;;;;5091164;28;20228;-83
2022/08/29 05:03:08;;;;;;;5.55;1.10;;;19.90;99.90;;;;;;5087252;28;20199;-84
2022/08/29 05:05:39;;;;;;;3.90;0.90;;;19.80;99.90;;;;;;5087656;28;20252;-82
2022/08/29 05:08:10;;;;;;;6.45;1.00;;;19.80;99.90;;;;;;5091105;28;20207;-84
2022/08/29 05:10:41;;;;;;;7.43;1.45;;;19.80;99.90;;;;;;5092225;28;20238;-83
2022/08/29 05:13:16;;;;;;;5.13;1.05;;;19.70;99.90;;;;;;5095742;28;20219;-86
2022/08/29 05:15:49;;;;;;;5.60;1.02;;;19.70;99.90;;;;;;5076328;28;20195;-87
2022/08/29 05:18:20;;;;;;;3.88;1.00;;;19.70;99.90;;;;;;5081623;28;20284;-85
2022/08/29 05:20:52;;;;;;;8.68;1.23;;;19.70;99.90;;;;;;5092479;28;20199;-84
2022/08/29 05:23:23;;;;;;;4.97;1.10;;;19.70;99.90;;;;;;5092657;28;20543;-88
2022/08/29 05:26:00;;;;;;;6.63;1.23;;;19.70;99.90;;;;;;5093569;28;20198;-87
2022/08/29 05:28:36;;;;;;;11.57;1.67;;;19.60;99.90;;;;;;5094621;28;20224;-87
2022/08/29 05:31:09;;;;;;;6.72;1.42;;;19.60;99.90;;;;;;5090397;28;20233;-88
2022/08/29 05:33:40;;;;;;;7.65;1.63;;;19.60;99.90;;;;;;5094193;28;20223;-87
2022/08/29 05:44:35;;;;;;;6.32;1.48;;;19.40;99.90;;;;;;5120164;28;20186;-86
2022/08/29 05:47:20;;;;;;;5.43;1.27;;;19.30;99.90;;;;;;5125735;28;20198;-87
2022/08/29 05:49:53;;;;;;;6.70;1.60;;;19.30;99.90;;;;;;5107532;28;20191;-86
2022/08/29 05:52:24;;;;;;;6.35;1.20;;;19.30;99.90;;;;;;5125942;28;20217;-84
2022/08/29 05:55:03;;;;;;;5.20;0.93;;;19.30;99.90;;;;;;5125829;28;20259;-86
2022/08/29 05:57:34;;;;;;;6.53;1.20;;;19.20;99.90;;;;;;5115624;28;20218;-87
2022/08/29 06:02:59;;;;;;;7.25;1.10;;;19.10;99.90;;;;;;5082137;28;20196;-86
2022/08/29 06:05:33;;;;;;;8.52;1.38;;;19.10;99.90;;;;;;5081613;28;20195;-86
2022/08/29 06:08:10;;;;;;;3.80;1.02;;;19.10;99.90;;;;;;5096248;28;20194;-86
2022/08/29 06:10:45;;;;;;;6.15;1.40;;;19.00;99.90;;;;;;5101021;28;20221;-86
2022/08/29 06:13:30;;;;;;;4.72;1.40;;;19.00;99.90;;;;;;5102177;28;20256;-85
2022/08/29 06:16:11;;;;;;;4.90;1.40;;;18.90;99.90;;;;;;5084406;28;20279;-84
2022/08/29 06:18:43;;;;;;;4.38;1.00;;;18.90;99.90;;;;;;5083276;28;20203;-85
2022/08/29 06:21:18;;;;;;;7.40;1.58;;;18.90;99.90;;;;;;5084659;28;20204;-84
2022/08/29 06:26:41;;;;;;;6.45;1.20;;;18.90;99.90;;;;;;5090162;28;20287;-86
2022/08/29 06:29:33;;;;;;;;;;;;;;;;;;;;;
2022/08/29 06:32:31;;;;;;;4.43;1.15;;;18.80;99.90;;;;;;5094730;28;20306;-85
2022/08/29 06:35:20;;;;;;;5.20;1.40;;;18.80;99.90;;;;;;5105473;28;20203;-85
2022/08/29 06:41:37;;;;;;;5.47;1.40;;;18.70;99.90;;;;;;5089704;28;20212;-86
2022/08/29 06:44:30;;;;;;;11.02;1.88;;;18.60;99.90;;;;;;5087431;28;20200;-85
2022/08/29 06:47:44;;;;;;;8.15;1.63;;;18.60;99.90;;;;;;5081815;28;20271;-85
2022/08/29 07:00:06;;;;;;;6.20;1.42;;;18.60;99.90;;;;;;5071208;28;20230;-87
2022/08/29 07:03:15;;;;;;;5.82;1.63;;;18.50;99.90;;;;;;5093314;28;20701;-87
2022/08/29 07:06:23;;;;;;;8.07;1.85;;;18.50;99.90;;;;;;5084510;28;20200;-85
2022/08/29 07:08:59;;;;;;;11.07;2.38;;;18.50;99.90;;;;;;5089390;28;20200;-85
2022/08/29 07:11:34;;;;;;;9.88;1.95;;;18.50;99.90;;;;;;5084367;28;20694;-87
2022/08/29 07:17:14;;;;;;;7.68;2.45;;;18.40;99.90;;;;;;5090833;28;20235;-86
2022/08/29 07:20:15;;;;;;;9.80;3.67;;;18.40;99.90;;;;;;5068128;28;20196;-84
2022/08/29 07:26:32;;;;;;;10.38;2.30;;;18.40;99.90;;;;;;5088054;28;20256;-86
2022/08/29 07:29:25;;;;;;;9.05;2.58;;;18.30;99.90;;;;;;5084049;28;20208;-86
2022/08/29 07:31:56;;;;;;;9.15;1.65;;;18.30;99.90;;;;;;5083282;28;20231;-84
2022/08/29 07:34:27;;;;;;;7.03;1.48;;;18.30;99.90;;;;;;5080481;28;20619;-84
2022/08/29 07:36:57;;;;;;;11.20;2.13;;;18.20;99.90;;;;;;5096763;28;20203;-85
2022/08/29 07:39:28;;;;;;;7.28;1.73;;;18.20;99.90;;;;;;5085349;28;20223;-83
2022/08/29 07:41:59;;;;;;;8.40;1.67;;;18.20;99.90;;;;;;5073891;28;20196;-83
2022/08/29 07:44:33;;;;;;;9.18;1.63;;;18.20;99.90;;;;;;5074163;28;20180;-83
2022/08/29 07:47:05;;;;;;;7.93;1.80;;;18.20;99.90;;;;;;5073901;28;20219;-82
2022/08/29 07:49:36;;;;;;;7.78;2.10;;;18.10;99.90;;;;;;5078376;28;20200;-81
2022/08/29 07:52:08;;;;;;;14.80;2.17;;;18.20;99.90;;;;;;5086265;28;20227;-83
2022/08/29 07:54:39;;;;;;;10.13;2.13;;;18.20;99.90;;;;;;5094227;28;20225;-82
2022/08/29 07:57:10;;;;;;;16.10;3.53;;;18.20;99.90;;;;;;5079840;28;20232;-82
2022/08/29 07:59:44;;;;;;;11.35;2.60;;;18.20;99.90;;;;;;5089975;28;20210;-78
2022/08/29 08:02:15;;;;;;;8.30;2.05;;;18.30;99.90;;;;;;5097615;28;20191;-84
2022/08/29 08:04:47;;;;;;;8.32;1.90;;;18.20;99.90;;;;;;5100542;28;20222;-84
2022/08/29 08:07:18;;;;;;;10.27;2.30;;;18.20;99.90;;;;;;5102425;28;20195;-85
2022/08/29 08:09:49;;;;;;;10.25;2.00;;;18.20;99.90;;;;;;5094656;28;20576;-84
2022/08/29 08:12:21;;;;;;;9.63;2.00;;;18.20;99.90;;;;;;5092138;28;20218;-84
2022/08/29 08:14:55;;;;;;;11.15;2.40;;;18.10;99.90;;;;;;5092846;28;20195;-82
2022/08/29 08:17:26;;;;;;;11.95;2.13;;;18.10;99.90;;;;;;5091800;28;20642;-83
2022/08/29 08:19:57;;;;;;;10.80;1.90;;;18.20;99.90;;;;;;5093185;28;20302;-86
2022/08/29 08:22:28;;;;;;;8.30;1.58;;;18.10;99.90;;;;;;5093044;28;20195;-85
2022/08/29 08:24:59;;;;;;;13.50;2.85;;;18.10;99.90;;;;;;5094480;28;20238;-87
2022/08/29 08:27:30;;;;;;;9.50;2.33;;;18.10;99.90;;;;;;5081184;28;20572;-88
2022/08/29 08:30:02;;;;;;;7.90;2.10;;;18.10;99.90;;;;;;5094826;28;20218;-89
2022/08/29 08:32:33;;;;;;;9.85;2.38;;;18.10;99.90;;;;;;5091153;28;20204;-85
2022/08/29 08:35:05;;;;;;;12.82;2.45;;;18.10;99.90;;;;;;5091489;28;20187;-86
2022/08/29 08:37:37;;;;;;;10.65;2.55;;;18.10;99.90;;;;;;5092251;28;20187;-89
2022/08/29 08:40:08;;;;;;;9.68;2.63;;;18.00;99.90;;;;;;5091950;28;20188;-84
2022/08/29 08:42:43;;;;;;;12.02;2.42;;;18.00;99.90;;;;;;5091914;28;20209;-86
2022/08/29 08:45:18;;;;;;;12.75;2.45;;;18.00;99.90;;;;;;5092451;28;20576;-86
2022/08/29 08:47:59;;;;;;;9.45;2.05;;;18.00;99.90;;;;;;5080610;28;20199;-86
2022/08/29 08:50:38;;;;;;;10.68;2.38;;;17.90;99.90;;;;;;5074574;28;20216;-88
2022/08/29 08:53:13;;;;;;;11.60;2.03;;;18.00;99.90;;;;;;5092163;28;20203;-87
2022/08/29 08:55:46;;;;;;;8.30;1.55;;;18.00;99.90;;;;;;5091471;28;20209;-88
2022/08/29 08:58:33;;;;;;;7.05;2.03;;;18.00;99.90;;;;;;5087039;28;20236;-90
2022/08/29 09:01:22;;;;;;;10.70;2.03;;;18.00;99.90;;;;;;5083674;28;20191;-88
2022/08/29 09:04:22;;;;;;;5.35;1.70;;;18.00;99.90;;;;;;5088048;28;20228;-87
2022/08/29 09:07:03;;;;;;;9.60;1.77;;;17.90;99.90;;;;;;5072286;28;20214;-87
2022/08/29 09:09:46;;;;;;;9.10;2.20;;;17.90;99.90;;;;;;5108784;28;20225;-90
2022/08/29 09:12:29;;;;;;;7.07;1.95;;;17.90;99.90;;;;;;5093358;28;20710;-87
2022/08/29 09:15:08;;;;;;;5.43;1.52;;;17.90;99.90;;;;;;5092926;28;20192;-88
2022/08/29 09:17:51;;;;;;;7.97;2.20;;;17.90;99.90;;;;;;5090205;28;20628;-87
2022/08/29 09:20:24;;;;;;;8.18;1.90;;;17.90;99.90;;;;;;5092381;28;20191;-89
2022/08/29 09:23:02;;;;;;;6.80;1.90;;;17.90;99.90;;;;;;5071951;28;20211;-88
2022/08/29 09:25:35;;;;;;;10.07;3.15;;;17.90;99.90;;;;;;5075906;28;20191;-90
2022/08/29 09:28:07;;;;;;;6.75;2.60;;;17.90;99.90;;;;;;5092411;28;20203;-88
2022/08/29 09:30:40;;;;;;;6.53;2.10;;;17.90;99.90;;;;;;5091748;28;20201;-88
2022/08/29 09:33:15;;;;;;;5.75;2.40;;;17.90;99.90;;;;;;5092653;28;20195;-88
2022/08/29 09:35:49;;;;;;;9.30;2.35;;;17.80;99.90;;;;;;5091512;28;20199;-89
2022/08/29 09:38:24;;;;;;;6.32;1.90;;;17.90;99.90;;;;;;5080470;28;20278;-91
2022/08/29 09:40:58;;;;;;;4.90;1.52;;;17.90;99.90;;;;;;5088688;28;20192;-90
2022/08/29 09:43:46;;;;;;;7.18;1.85;;;17.90;99.90;;;;;;5116913;28;20204;-92
2022/08/29 09:46:22;;;;;;;7.50;1.80;;;17.80;99.90;;;;;;5091111;28;20226;-91
2022/08/29 09:48:56;;;;;;;3.95;1.55;;;17.80;99.90;;;;;;5092690;28;20281;-91
2022/08/29 09:51:31;;;;;;;6.15;1.55;;;17.80;99.90;;;;;;5084523;28;20223;-91
2022/08/29 09:54:18;;;;;;;5.32;1.58;;;17.80;99.90;;;;;;5097115;28;20328;-91
2022/08/29 09:56:52;;;;;;;5.10;1.73;;;17.90;99.90;;;;;;5097199;28;20198;-91
2022/08/29 09:59:28;;;;;;;5.53;2.08;;;17.90;99.90;;;;;;5103785;28;20222;-91
2022/08/29 10:02:21;;;;;;;5.72;2.03;;;17.90;99.90;;;;;;5103434;28;20282;-90
2022/08/29 10:05:05;;;;;;;4.07;1.60;;;17.90;99.90;;;;;;5097620;28;20286;-89
2022/08/29 10:07:50;;;;;;;9.32;2.15;;;17.80;99.90;;;;;;5106650;28;20271;-88
2022/08/29 10:13:30;;;;;;;8.45;2.13;;;17.80;99.90;;;;;;5113326;28;20228;-85
2022/08/29 10:19:28;;;;;;;6.35;2.58;;;17.90;99.90;;;;;;5106773;28;20215;-85
2022/08/29 10:22:28;;;;;;;4.90;2.35;;;17.80;99.90;;;;;;5105198;28;20670;-85
2022/08/29 10:25:10;;;;;;;6.82;2.42;;;17.90;99.90;;;;;;5103077;28;20196;-85
2022/08/29 10:27:52;;;;;;;6.90;2.75;;;17.90;99.90;;;;;;5104816;28;20191;-85
2022/08/29 10:30:25;;;;;;;11.25;3.63;;;17.90;99.90;;;;;;5109449;28;20222;-85
2022/08/29 10:36:11;;;;;;;7.75;3.47;;;17.90;99.90;;;;;;5099987;28;20191;-87
2022/08/29 10:38:58;;;;;;;6.55;3.50;;;17.90;99.90;;;;;;5108970;28;20240;-83
2022/08/29 10:41:37;;;;;;;6.50;3.38;;;17.80;99.90;;;;;;5090973;28;20215;-85
2022/08/29 10:44:27;;;;;;;5.70;3.20;;;17.90;99.90;;;;;;5104176;28;20222;-84
2022/08/29 10:47:46;;;;;;;7.38;3.60;;;17.80;99.90;;;;;;5106014;28;20215;-84
2022/08/29 10:53:31;;;;;;;6.05;3.72;;;17.90;99.90;;;;;;5104356;28;20230;-82
2022/08/29 10:56:22;;;;;;;7.90;4.63;;;17.80;99.90;;;;;;5106940;28;20191;-85
2022/08/29 10:59:07;;;;;;;6.78;4.20;;;17.90;99.90;;;;;;5093055;28;20696;-85
2022/08/29 11:01:47;;;;;;;6.10;3.88;;;17.90;99.90;;;;;;5104931;28;20195;-82
2022/08/29 11:04:21;;;;;;;10.10;3.83;;;17.90;99.90;;;;;;5090660;28;20215;-81
2022/08/29 11:06:58;;;;;;;5.53;3.50;;;17.90;99.90;;;;;;5103263;28;20209;-82
2022/08/29 11:09:47;;;;;;;6.55;3.80;;;17.90;99.90;;;;;;5095131;28;20199;-84
2022/08/29 11:12:40;;;;;;;7.00;3.65;;;17.80;99.90;;;;;;5107777;28;20211;-83
2022/08/29 11:15:23;;;;;;;8.90;4.25;;;17.80;99.90;;;;;;5135275;22;20278;-82
2022/08/29 11:23:50;;;;;;;5.18;3.10;;;17.90;99.90;;;;;;5082761;28;20214;-82
2022/08/29 11:26:36;;;;;;;7.00;3.30;;;17.90;99.90;;;;;;5088181;28;20253;-81
2022/08/29 11:29:23;;;;;;;6.72;3.25;;;17.90;99.90;;;;;;5065984;28;20225;-81
2022/08/29 11:32:04;;;;;;;6.80;3.00;;;17.90;99.90;;;;;;5061005;28;20278;-82
2022/08/29 11:38:23;;;;;;;7.55;3.10;;;17.90;99.90;;;;;;5067521;28;20655;-81
2022/08/29 11:41:16;;;;;;;5.90;3.13;;;17.80;99.90;;;;;;5044640;28;20244;-83
2022/08/29 11:43:52;;;;;;;7.93;2.88;;;17.90;99.90;;;;;;5023197;28;20197;-82
2022/08/29 11:46:46;;;;;;;5.22;2.88;;;17.80;99.90;;;;;;5042234;28;20212;-82
2022/08/29 11:49:43;;;;;;;4.25;2.88;;;17.80;99.90;;;;;;5049803;28;20204;-84
2022/08/29 11:52:36;;;;;;;6.53;3.25;;;17.80;99.90;;;;;;5073010;28;20307;-84
2022/08/29 11:55:42;;;;;;;5.95;2.70;;;17.80;99.90;;;;;;5060176;28;20231;-84
2022/08/29 11:58:46;;;;;;;4.35;2.47;;;17.80;99.90;;;;;;5087320;28;20206;-86
2022/08/29 12:02:05;;;;;;;4.15;2.50;;;17.80;99.90;;;;;;5064046;28;20211;-89
2022/08/29 12:05:13;;;;;;;6.03;2.80;;;17.80;99.90;;;;;;5004033;28;20175;-86
2022/08/29 12:07:54;;;;;;;3.78;2.50;;;17.80;99.90;;;;;;5068259;28;20273;-86
2022/08/29 12:10:34;;;;;;;4.63;2.88;;;17.70;99.90;;;;;;5060981;28;20589;-86
2022/08/29 12:13:06;;;;;;;4.72;2.63;;;17.70;99.90;;;;;;5059170;28;20311;-85
2022/08/29 12:16:06;;;;;;;4.88;2.55;;;17.80;99.90;;;;;;5049630;28;20240;-85
2022/08/29 12:18:51;;;;;;;3.72;2.35;;;17.70;99.90;;;;;;5062426;28;20185;-83
2022/08/29 12:21:51;;;;;;;4.78;2.63;;;17.70;99.90;;;;;;5070382;28;20197;-87
2022/08/29 12:24:45;;;;;;;4.70;2.50;;;17.70;99.90;;;;;;5053966;28;20723;-84
2022/08/29 12:28:02;;;;;;;4.35;2.50;;;17.60;99.90;;;;;;5031749;28;20229;-84
2022/08/29 12:30:39;;;;;;;3.33;2.25;;;17.70;99.90;;;;;;5031798;28;20656;-85
2022/08/29 12:33:21;;;;;;;3.72;2.30;;;17.60;99.90;;;;;;5031838;28;20589;-84
2022/08/29 12:36:13;;;;;;;3.75;2.40;;;17.70;99.90;;;;;;5037822;28;20678;-83
2022/08/29 12:38:57;;;;;;;4.50;2.40;;;17.70;99.90;;;;;;5032146;28;20652;-85
2022/08/29 12:41:49;;;;;;;3.80;2.30;;;17.60;99.90;;;;;;5038977;28;20726;-85
2022/08/29 12:44:26;;;;;;;3.15;1.95;;;17.60;99.90;;;;;;5032165;28;20193;-83
2022/08/29 12:47:03;;;;;;;4.53;1.80;;;17.70;99.90;;;;;;5032011;28;20224;-84
2022/08/29 12:49:42;;;;;;;3.10;2.30;;;17.60;99.90;;;;;;5031405;28;20628;-85
2022/08/29 12:52:24;;;;;;;4.55;2.10;;;17.60;99.90;;;;;;5043185;28;20216;-85
2022/08/29 12:54:56;;;;;;;2.55;2.20;;;17.60;99.90;;;;;;5051394;28;20196;-85
2022/08/29 12:57:34;;;;;;;2.47;2.00;;;17.60;99.90;;;;;;5051733;28;20201;-86
2022/08/29 13:00:07;;;;;;;2.88;2.05;;;17.70;99.90;;;;;;5051734;28;20208;-84
2022/08/29 13:02:39;;;;;;;4.32;2.15;;;17.60;99.90;;;;;;5048078;28;20213;-85
2022/08/29 13:05:23;;;;;;;2.47;1.92;;;17.70;99.90;;;;;;5054362;28;20223;-85
2022/08/29 13:07:57;;;;;;;3.20;2.22;;;17.60;99.90;;;;;;5051714;28;20642;-85
2022/08/29 13:10:30;;;;;;;1.88;1.70;;;17.60;99.90;;;;;;5054228;28;20717;-85
2022/08/29 13:13:13;;;;;;;6.82;2.47;;;17.60;99.90;;;;;;5049592;28;20228;-85
2022/08/29 13:15:50;;;;;;;6.38;1.98;;;17.60;99.90;;;;;;5061513;28;20313;-85
2022/08/29 13:18:25;;;;;;;3.10;2.00;;;17.60;99.90;;;;;;5057725;28;20198;-84
2022/08/29 13:21:10;;;;;;;3.85;2.10;;;17.60;99.90;;;;;;5054950;28;20258;-85
2022/08/29 13:23:44;;;;;;;3.22;2.03;;;17.60;99.90;;;;;;5066272;28;20618;-84
2022/08/29 13:26:26;;;;;;;4.88;2.00;;;17.60;99.90;;;;;;5044068;28;20204;-84
2022/08/29 13:29:00;;;;;;;2.97;1.75;;;17.60;99.90;;;;;;5058753;28;20211;-85
2022/08/29 13:31:37;;;;;;;2.63;1.85;;;17.60;99.90;;;;;;5056185;28;20204;-84
2022/08/29 13:34:23;;;;;;;2.95;2.00;;;17.60;99.90;;;;;;5055195;28;20266;-84
2022/08/29 13:37:06;;;;;;;3.72;1.60;;;17.60;99.90;;;;;;5057603;28;20279;-84
2022/08/29 13:39:50;;;;;;;2.90;2.10;;;17.60;99.90;;;;;;5052349;28;20246;-84
2022/08/29 13:42:32;;;;;;;3.13;1.90;;;17.60;99.90;;;;;;5054446;28;20201;-84
2022/08/29 13:45:21;;;;;;;3.13;2.08;;;17.60;99.90;;;;;;5057794;28;20192;-84
2022/08/29 13:48:22;;;;;;;2.67;1.88;;;17.50;99.90;;;;;;5054256;28;20201;-84
2022/08/29 13:50:52;;;;;;;2.97;1.88;;;17.60;99.90;;;;;;5054406;28;20197;-84
2022/08/29 13:53:23;;;;;;;5.43;2.03;;;17.50;99.90;;;;;;5056129;28;20239;-85
2022/08/29 13:55:54;;;;;;;2.28;1.80;;;17.50;99.90;;;;;;5054575;28;20284;-83
2022/08/29 13:58:25;;;;;;;2.92;2.00;;;17.50;99.90;;;;;;5054537;28;20204;-83
2022/08/29 14:01:00;;;;;;;2.88;1.90;;;17.60;99.90;;;;;;5054531;28;20207;-83
2022/08/29 14:03:31;;;;;;;2.13;1.70;;;17.60;99.90;;;;;;5056853;28;20203;-83
2022/08/29 14:06:01;;;;;;;2.13;1.85;;;17.50;99.90;;;;;;5054402;28;20228;-82
2022/08/29 14:08:33;;;;;;;3.33;2.05;;;17.50;99.90;;;;;;5046999;28;20197;-83
2022/08/29 14:11:04;;;;;;;3.28;1.92;;;17.50;99.90;;;;;;5057408;28;20208;-83
2022/08/29 14:13:35;;;;;;;3.53;2.00;;;17.50;99.90;;;;;;5056240;28;20304;-83
2022/08/29 14:16:09;;;;;;;3.53;2.30;;;17.60;99.90;;;;;;5035532;28;20213;-83
2022/08/29 14:18:40;;;;;;;2.45;1.92;;;17.50;99.90;;;;;;5034920;28;20185;-83
2022/08/29 14:21:10;;;;;;;3.53;2.22;;;17.50;99.90;;;;;;5034637;28;20229;-83
2022/08/29 14:23:41;;;;;;;2.92;2.20;;;17.60;99.90;;;;;;5044608;28;20186;-84
2022/08/29 14:26:12;;;;;;;2.75;2.08;;;17.60;99.90;;;;;;5045438;28;20203;-84
2022/08/29 14:28:43;;;;;;;2.58;1.98;;;17.60;99.90;;;;;;5054048;28;20203;-83
2022/08/29 14:31:16;;;;;;;3.80;2.50;;;17.70;99.90;;;;;;5034259;28;20201;-84
2022/08/29 14:33:46;;;;;;;2.92;2.33;;;17.60;99.90;;;;;;5038918;28;20221;-83
2022/08/29 14:36:17;;;;;;;5.32;2.58;;;17.70;99.90;;;;;;5053895;28;20208;-84
2022/08/29 14:38:48;;;;;;;3.55;2.20;;;17.70;99.90;;;;;;5052640;28;20594;-84